createdAt,value
2019-03-02T00:02:24.139Z,8.00
2019-03-02T00:04:50.340Z,7.80
2019-03-02T00:07:16.817Z,8.00
2019-03-02T00:09:43.304Z,8.10
2019-03-02T00:12:09.985Z,8.40
2019-03-02T00:14:36.576Z,8.40
2019-03-02T00:17:03.150Z,8.10
2019-03-02T00:19:29.640Z,7.90
2019-03-02T00:21:56.372Z,8.30
2019-03-02T00:24:23.020Z,8.30
2019-03-02T00:26:49.617Z,7.70
2019-03-02T00:29:16.200Z,7.80
2019-03-02T00:31:42.952Z,7.80
2019-03-02T00:34:09.499Z,8.10
2019-03-02T00:36:36.091Z,8.00
2019-03-02T00:39:04.636Z,8.10
2019-03-02T00:41:31.504Z,8.10
2019-03-02T00:43:59.828Z,7.80
2019-03-02T00:46:26.169Z,8.40
2019-03-02T00:48:52.841Z,8.10
2019-03-02T00:51:19.633Z,8.20
2019-03-02T00:53:46.192Z,8.30
2019-03-02T00:56:12.684Z,8.10
2019-03-02T00:58:39.141Z,8.00
2019-03-02T01:01:05.730Z,8.10
2019-03-02T01:03:32.405Z,7.80
2019-03-02T01:05:59.005Z,7.90
2019-03-02T01:08:25.579Z,8.10
2019-03-02T01:10:54.777Z,7.80
2019-03-02T01:13:22.950Z,7.80
2019-03-02T01:15:49.028Z,8.00
2019-03-02T01:18:15.616Z,8.00
2019-03-02T01:20:42.590Z,7.90
2019-03-02T01:23:09.276Z,7.80
2019-03-02T01:25:35.751Z,7.80
2019-03-02T01:28:02.435Z,7.70
2019-03-02T01:30:30.012Z,7.80
2019-03-02T01:32:57.301Z,7.70
2019-03-02T01:35:24.133Z,7.80
2019-03-02T01:37:50.739Z,7.50
2019-03-02T01:40:17.403Z,7.70
2019-03-02T01:42:43.896Z,7.40
2019-03-02T01:45:12.765Z,7.50
2019-03-02T01:47:39.238Z,7.70
2019-03-02T01:50:08.634Z,7.80
2019-03-02T01:52:36.767Z,7.60
2019-03-02T01:55:05.661Z,7.60
2019-03-02T01:57:32.115Z,7.80
2019-03-02T01:59:58.706Z,7.80
2019-03-02T02:02:25.367Z,7.50
2019-03-02T02:04:54.535Z,7.70
2019-03-02T02:07:20.134Z,7.40
2019-03-02T02:09:46.722Z,7.90
2019-03-02T02:12:13.786Z,7.50
2019-03-02T02:14:40.268Z,7.40
2019-03-02T02:17:06.940Z,7.50
2019-03-02T02:19:34.796Z,7.70
2019-03-02T02:22:21.557Z,7.60
2019-03-02T02:24:48.158Z,8.10
2019-03-02T02:27:14.712Z,7.90
2019-03-02T02:29:43.509Z,7.80
2019-03-02T02:32:09.573Z,7.70
2019-03-02T02:34:36.167Z,7.80
2019-03-02T02:37:02.829Z,8.10
2019-03-02T02:39:33.633Z,7.80
2019-03-02T02:41:59.940Z,7.50
2019-03-02T02:44:26.462Z,7.50
2019-03-02T02:46:53.022Z,7.20
2019-03-02T02:49:19.616Z,7.80
2019-03-02T02:51:49.462Z,7.50
2019-03-02T02:54:14.339Z,7.50
2019-03-02T02:56:40.912Z,7.40
2019-03-02T02:59:07.474Z,7.80
2019-03-02T03:01:35.014Z,7.40
2019-03-02T03:04:01.944Z,7.30
2019-03-02T03:06:32.540Z,7.50
2019-03-02T03:08:56.987Z,7.20
2019-03-02T03:11:23.605Z,7.40
2019-03-02T03:13:50.053Z,7.20
2019-03-02T03:16:17.915Z,7.50
2019-03-02T03:18:47.030Z,7.50
2019-03-02T03:21:12.897Z,7.40
2019-03-02T03:23:39.461Z,7.30
2019-03-02T03:26:06.319Z,7.40
2019-03-02T03:28:33.162Z,7.30
2019-03-02T03:30:59.841Z,7.60
2019-03-02T03:33:26.403Z,7.50
2019-03-02T03:35:56.132Z,7.50
2019-03-02T03:38:24.973Z,7.20
2019-03-02T03:40:49.974Z,7.30
2019-03-02T03:43:16.547Z,7.00
2019-03-02T03:45:45.049Z,6.90
2019-03-02T03:48:12.983Z,7.20
2019-03-02T03:50:39.989Z,7.10
2019-03-02T03:53:06.552Z,7.20
2019-03-02T03:55:33.154Z,7.10
2019-03-02T03:58:00.357Z,6.60
2019-03-02T04:00:28.160Z,6.80
2019-03-02T04:02:54.751Z,6.70
2019-03-02T04:05:21.196Z,7.20
2019-03-02T04:07:49.671Z,7.00
2019-03-02T04:10:24.531Z,6.90
2019-03-02T04:12:44.716Z,7.00
2019-03-02T04:15:11.477Z,7.20
2019-03-02T04:17:39.047Z,6.90
2019-03-02T04:20:13.724Z,6.80
2019-03-02T04:22:44.595Z,6.90
2019-03-02T04:25:12.962Z,6.80
2019-03-02T04:27:37.600Z,7.00
2019-03-02T04:30:07.124Z,7.00
2019-03-02T04:32:33.609Z,7.30
2019-03-02T04:35:00.338Z,6.90
2019-03-02T04:37:26.865Z,7.20
2019-03-02T04:39:53.526Z,7.10
2019-03-02T04:42:20.125Z,7.20
2019-03-02T04:44:46.696Z,7.10
2019-03-02T04:47:13.622Z,7.20
2019-03-02T04:49:40.072Z,7.30
2019-03-02T04:52:06.793Z,7.20
2019-03-02T04:54:37.445Z,7.40
2019-03-02T04:57:01.634Z,7.00
2019-03-02T04:59:28.092Z,7.00
2019-03-02T05:01:54.602Z,7.10
2019-03-02T05:04:21.061Z,7.00
2019-03-02T05:06:50.660Z,6.90
2019-03-02T05:09:17.114Z,7.00
2019-03-02T05:11:44.405Z,6.90
2019-03-02T05:14:10.994Z,7.20
2019-03-02T05:16:37.543Z,6.90
2019-03-02T05:19:04.034Z,6.80
2019-03-02T05:21:30.483Z,6.90
2019-03-02T05:23:56.868Z,6.80
2019-03-02T05:26:23.616Z,7.10
2019-03-02T05:28:50.273Z,7.40
2019-03-02T05:31:17.117Z,7.30
2019-03-02T05:33:43.650Z,7.10
2019-03-02T05:36:10.160Z,7.10
2019-03-02T05:38:36.662Z,7.20
2019-03-02T05:41:03.982Z,7.40
2019-03-02T05:43:30.913Z,7.70
2019-03-02T05:45:57.756Z,7.70
2019-03-02T05:48:24.335Z,7.60
2019-03-02T05:50:50.891Z,7.80
2019-03-02T05:53:17.368Z,7.80
2019-03-02T05:55:44.205Z,7.70
2019-03-02T05:58:12.610Z,7.80
2019-03-02T06:00:39.161Z,7.80
2019-03-02T06:03:05.622Z,7.60
2019-03-02T06:05:32.397Z,7.20
2019-03-02T06:08:00.522Z,7.30
2019-03-02T06:10:27.146Z,7.20
2019-03-02T06:12:53.608Z,7.40
2019-03-02T06:15:20.098Z,7.30
2019-03-02T06:17:46.947Z,7.80
2019-03-02T06:20:13.541Z,7.70
2019-03-02T06:22:40.297Z,7.50
2019-03-02T06:25:19.391Z,7.80
2019-03-02T06:27:43.208Z,7.70
2019-03-02T06:30:16.510Z,7.80
2019-03-02T06:32:43.074Z,7.80
2019-03-02T06:35:09.644Z,7.50
2019-03-02T06:37:36.416Z,7.20
2019-03-02T06:40:05.714Z,7.30
2019-03-02T06:42:32.652Z,7.40
2019-03-02T06:44:59.152Z,7.40
2019-03-02T06:47:25.711Z,7.60
2019-03-02T06:49:53.176Z,7.70
2019-03-02T06:52:25.167Z,7.40
2019-03-02T06:54:49.208Z,7.50
2019-03-02T06:57:15.969Z,7.40
2019-03-02T06:59:42.332Z,7.80
2019-03-02T07:02:08.808Z,7.60
2019-03-02T07:04:35.272Z,7.60
2019-03-02T07:07:01.850Z,7.70
2019-03-02T07:09:28.300Z,7.80
2019-03-02T07:11:54.889Z,7.80
2019-03-02T07:14:21.353Z,7.50
2019-03-02T07:16:47.927Z,7.50
2019-03-02T07:19:33.081Z,7.40
2019-03-02T07:21:59.671Z,7.60
2019-03-02T07:24:29.443Z,7.70
2019-03-02T07:26:55.484Z,8.00
2019-03-02T07:29:22.048Z,7.70
2019-03-02T07:31:48.533Z,7.70
2019-03-02T07:34:14.996Z,7.90
2019-03-02T07:36:41.440Z,7.80
2019-03-02T07:39:08.125Z,8.10
2019-03-02T07:41:34.684Z,8.10
2019-03-02T07:44:01.361Z,7.80
2019-03-02T07:46:27.721Z,8.00
2019-03-02T07:48:54.216Z,8.20
2019-03-02T07:51:20.690Z,8.10
2019-03-02T07:53:47.173Z,8.10
2019-03-02T07:56:13.619Z,8.40
2019-03-02T07:58:40.199Z,8.40
2019-03-02T08:01:06.755Z,7.90
2019-03-02T08:03:33.241Z,8.20
2019-03-02T08:06:01.291Z,8.10
2019-03-02T08:08:27.898Z,8.30
2019-03-02T08:10:54.456Z,8.40
2019-03-02T08:13:20.944Z,8.30
2019-03-02T08:15:47.516Z,8.20
2019-03-02T08:18:14.012Z,8.10
2019-03-02T08:20:40.560Z,8.20
2019-03-02T08:23:07.025Z,8.40
2019-03-02T08:25:33.524Z,8.40
2019-03-02T08:27:59.996Z,8.20
2019-03-02T08:30:29.881Z,8.30
2019-03-02T08:32:57.730Z,8.10
2019-03-02T08:35:23.464Z,8.40
2019-03-02T08:37:50.363Z,8.50
2019-03-02T08:40:19.432Z,8.50
2019-03-02T08:42:45.734Z,8.70
2019-03-02T08:45:16.184Z,8.60
2019-03-02T08:47:42.864Z,8.80
2019-03-02T08:50:17.442Z,9.10
2019-03-02T08:52:42.449Z,9.10
2019-03-02T08:55:20.080Z,8.90
2019-03-02T08:57:46.753Z,8.60
2019-03-02T09:00:18.477Z,8.80
2019-03-02T09:02:44.968Z,8.90
2019-03-02T09:05:11.549Z,8.70
2019-03-02T09:07:38.157Z,8.70
2019-03-02T09:10:13.707Z,8.70
2019-03-02T09:12:41.169Z,8.60
2019-03-02T09:15:22.246Z,8.80
2019-03-02T09:17:50.171Z,8.80
2019-03-02T09:20:16.701Z,8.80
2019-03-02T09:22:43.294Z,9.00
2019-03-02T09:25:16.573Z,9.00
2019-03-02T09:27:43.430Z,9.20
2019-03-02T09:30:15.300Z,9.20
2019-03-02T09:32:42.114Z,8.80
2019-03-02T09:35:12.960Z,9.10
2019-03-02T09:37:40.843Z,9.10
2019-03-02T09:40:13.358Z,8.90
2019-03-02T09:42:41.202Z,9.10
2019-03-02T09:45:13.181Z,9.20
2019-03-02T09:47:40.244Z,9.00
2019-03-02T09:50:10.000Z,9.40
2019-03-02T09:52:38.308Z,9.40
2019-03-02T09:55:07.377Z,9.30
2019-03-02T09:57:34.264Z,9.50
2019-03-02T10:00:00.641Z,9.80
2019-03-02T10:02:27.149Z,9.40
2019-03-02T10:04:53.829Z,9.40
2019-03-02T10:07:20.407Z,9.30
2019-03-02T10:09:46.892Z,9.40
2019-03-02T10:12:13.754Z,9.50
2019-03-02T10:14:41.561Z,9.50
2019-03-02T10:17:08.052Z,9.50
2019-03-02T10:19:34.616Z,9.50
2019-03-02T10:22:01.010Z,10.00
2019-03-02T10:24:27.577Z,9.80
2019-03-02T10:26:54.456Z,9.90
2019-03-02T10:29:21.019Z,10.20
2019-03-02T10:31:47.708Z,10.20
2019-03-02T10:34:14.324Z,10.00
2019-03-02T10:36:41.004Z,10.30
2019-03-02T10:39:07.596Z,10.20
2019-03-02T10:41:34.263Z,10.10
2019-03-02T10:44:00.848Z,10.20
2019-03-02T10:46:27.464Z,10.10
2019-03-02T10:48:54.346Z,10.10
2019-03-02T10:51:20.811Z,10.30
2019-03-02T10:53:47.296Z,10.50
2019-03-02T10:56:13.756Z,10.30
2019-03-02T10:58:40.270Z,10.40
2019-03-02T11:01:07.330Z,10.50
2019-03-02T11:03:35.232Z,11.00
2019-03-02T11:06:07.258Z,11.20
2019-03-02T11:08:35.825Z,11.10
2019-03-02T11:11:12.960Z,11.50
2019-03-02T11:13:57.933Z,11.90
2019-03-02T11:16:29.455Z,12.40
2019-03-02T11:18:57.974Z,11.80
2019-03-02T11:21:43.522Z,12.00
2019-03-02T11:24:30.530Z,12.40
2019-03-02T11:27:01.385Z,11.90
2019-03-02T11:29:36.070Z,12.20
2019-03-02T11:32:04.569Z,12.40
2019-03-02T11:34:45.020Z,12.90
2019-03-02T11:37:30.542Z,12.90
2019-03-02T11:40:01.884Z,13.00
2019-03-02T11:42:42.779Z,12.40
2019-03-02T11:45:11.471Z,12.40
2019-03-02T11:47:56.612Z,12.90
2019-03-02T11:50:34.465Z,12.90
2019-03-02T11:53:05.926Z,12.90
2019-03-02T11:55:34.872Z,12.90
2019-03-02T11:58:03.481Z,13.30
2019-03-02T12:00:37.741Z,12.70
2019-03-02T12:03:03.881Z,13.40
2019-03-02T12:05:32.444Z,13.70
2019-03-02T12:08:12.766Z,12.90
2019-03-02T12:10:56.217Z,12.80
2019-03-02T12:13:31.160Z,12.30
2019-03-02T12:16:01.674Z,12.40
2019-03-02T12:18:36.396Z,12.40
2019-03-02T12:21:05.004Z,12.80
2019-03-02T12:23:39.362Z,12.70
2019-03-02T12:26:20.105Z,12.80
2019-03-02T12:28:51.689Z,12.60
2019-03-02T12:31:28.095Z,13.60
2019-03-02T12:34:04.905Z,13.90
2019-03-02T12:36:49.100Z,14.90
2019-03-02T12:39:20.067Z,15.20
2019-03-02T12:41:52.520Z,15.50
2019-03-02T12:44:21.341Z,14.80
2019-03-02T12:46:58.971Z,14.10
2019-03-02T12:49:25.609Z,14.10
2019-03-02T12:52:00.284Z,13.00
2019-03-02T12:54:28.685Z,13.00
2019-03-02T12:56:57.143Z,12.70
2019-03-02T12:59:39.581Z,12.90
2019-03-02T13:02:14.126Z,12.90
2019-03-02T13:04:57.599Z,13.00
2019-03-02T13:07:25.984Z,12.90
2019-03-02T13:09:57.109Z,14.00
2019-03-02T13:12:25.769Z,14.10
2019-03-02T13:15:11.082Z,14.60
2019-03-02T13:17:39.566Z,14.10
2019-03-02T13:20:15.218Z,14.00
2019-03-02T13:23:03.080Z,13.90
2019-03-02T13:25:49.730Z,13.30
2019-03-02T13:28:18.363Z,13.50
2019-03-02T13:31:07.647Z,13.30
2019-03-02T13:33:36.973Z,13.10
2019-03-02T13:36:19.046Z,12.80
2019-03-02T13:38:59.769Z,13.00
2019-03-02T13:41:37.187Z,12.90
2019-03-02T13:44:11.488Z,12.80
2019-03-02T13:46:46.767Z,12.90
2019-03-02T13:49:15.412Z,12.70
2019-03-02T13:51:59.083Z,12.90
2019-03-02T13:54:30.108Z,12.70
2019-03-02T13:57:04.773Z,12.40
2019-03-02T13:59:43.794Z,12.30
2019-03-02T14:02:18.195Z,12.30
2019-03-02T14:04:49.392Z,12.40
2019-03-02T14:07:27.197Z,12.20
2019-03-02T14:10:11.357Z,12.30
2019-03-02T14:12:46.059Z,12.40
2019-03-02T14:15:21.682Z,12.80
2019-03-02T14:17:51.603Z,12.30
2019-03-02T14:20:24.796Z,12.80
2019-03-02T14:23:05.692Z,12.80
2019-03-02T14:25:34.171Z,12.40
2019-03-02T14:28:14.680Z,12.80
2019-03-02T14:31:02.443Z,12.70
2019-03-02T14:33:33.643Z,12.80
2019-03-02T14:36:20.130Z,12.80
2019-03-02T14:38:48.558Z,12.40
2019-03-02T14:41:17.021Z,12.70
2019-03-02T14:43:48.501Z,12.40
2019-03-02T14:46:35.231Z,12.40
2019-03-02T14:49:24.503Z,12.80
2019-03-02T14:51:53.181Z,12.60
2019-03-02T14:54:25.155Z,12.80
2019-03-02T14:56:53.542Z,12.80
2019-03-02T14:59:38.831Z,12.40
2019-03-02T15:02:23.941Z,12.70
2019-03-02T15:05:01.379Z,12.70
2019-03-02T15:07:39.074Z,12.80
2019-03-02T15:10:22.947Z,12.50
2019-03-02T15:12:58.080Z,12.40
2019-03-02T15:15:43.473Z,12.30
2019-03-02T15:18:29.399Z,11.80
2019-03-02T15:21:03.382Z,11.40
2019-03-02T15:23:39.014Z,11.50
2019-03-02T15:26:08.245Z,11.10
2019-03-02T15:28:39.524Z,11.00
2019-03-02T15:31:24.567Z,10.90
2019-03-02T15:34:10.351Z,11.10
2019-03-02T15:36:56.849Z,11.10
2019-03-02T15:39:25.687Z,11.00
2019-03-02T15:42:12.204Z,11.00
2019-03-02T15:44:52.841Z,11.20
2019-03-02T15:47:37.881Z,11.30
2019-03-02T15:50:13.380Z,11.40
2019-03-02T15:52:43.749Z,11.40
2019-03-02T15:55:22.841Z,11.30
2019-03-02T15:57:53.602Z,11.30
2019-03-02T16:00:21.705Z,11.30
2019-03-02T16:02:53.143Z,11.20
2019-03-02T16:05:21.722Z,11.20
2019-03-02T16:07:55.833Z,11.40
2019-03-02T16:10:24.392Z,11.20
2019-03-02T16:12:58.825Z,11.50
2019-03-02T16:15:33.177Z,11.50
2019-03-02T16:18:01.570Z,11.30
2019-03-02T16:20:38.976Z,11.30
2019-03-02T16:23:11.798Z,11.80
2019-03-02T16:25:42.899Z,11.40
2019-03-02T16:28:28.289Z,11.70
2019-03-02T16:31:04.162Z,11.40
2019-03-02T16:33:51.551Z,11.80
2019-03-02T16:36:20.053Z,11.30
2019-03-02T16:38:48.571Z,11.50
2019-03-02T16:41:19.913Z,11.00
2019-03-02T16:43:54.195Z,10.90
2019-03-02T16:46:22.556Z,11.10
2019-03-02T16:48:56.788Z,11.10
2019-03-02T16:51:43.661Z,10.80
2019-03-02T16:54:12.368Z,10.50
2019-03-02T16:56:41.064Z,10.30
2019-03-02T16:59:09.521Z,10.40
2019-03-02T17:01:38.449Z,10.30
2019-03-02T17:04:07.022Z,10.10
2019-03-02T17:06:42.629Z,10.20
2019-03-02T17:09:17.893Z,9.70
2019-03-02T17:11:52.400Z,9.90
2019-03-02T17:14:35.889Z,9.80
2019-03-02T17:17:11.875Z,9.90
2019-03-02T17:19:44.301Z,9.90
2019-03-02T17:22:18.679Z,9.80
2019-03-02T17:24:59.902Z,9.80
2019-03-02T17:27:28.782Z,9.70
2019-03-02T17:30:00.358Z,10.00
2019-03-02T17:32:45.608Z,9.70
2019-03-02T17:35:21.082Z,9.80
2019-03-02T17:38:02.182Z,9.70
2019-03-02T17:40:45.915Z,9.80
2019-03-02T17:43:20.412Z,9.60
2019-03-02T17:45:49.091Z,10.00
2019-03-02T17:48:32.636Z,9.80
2019-03-02T17:51:01.184Z,9.80
2019-03-02T17:53:44.601Z,9.70
2019-03-02T17:56:13.219Z,9.90
2019-03-02T17:58:44.293Z,9.70
2019-03-02T18:01:24.717Z,9.80
2019-03-02T18:03:55.952Z,10.00
2019-03-02T18:06:29.160Z,9.80
2019-03-02T18:08:57.520Z,9.80
2019-03-02T18:11:25.993Z,9.70
2019-03-02T18:14:00.446Z,10.10
2019-03-02T18:16:28.919Z,10.10
2019-03-02T18:18:55.614Z,10.20
2019-03-02T18:21:22.073Z,10.10
2019-03-02T18:23:49.026Z,9.90
2019-03-02T18:26:15.693Z,9.70
2019-03-02T18:28:42.298Z,10.20
2019-03-02T18:31:09.090Z,10.30
2019-03-02T18:33:40.633Z,10.30
2019-03-02T18:36:09.783Z,10.10
2019-03-02T18:38:35.493Z,9.90
2019-03-02T18:41:02.890Z,10.20
2019-03-02T18:43:29.657Z,10.00
2019-03-02T18:45:56.331Z,9.70
2019-03-02T18:48:33.929Z,9.70
2019-03-02T18:51:08.115Z,9.90
2019-03-02T18:53:36.021Z,10.10
2019-03-02T18:56:02.993Z,9.70
2019-03-02T18:58:29.593Z,10.10
2019-03-02T19:00:57.730Z,10.00
2019-03-02T19:03:24.825Z,10.30
2019-03-02T19:05:52.420Z,10.20
2019-03-02T19:08:18.875Z,10.00
2019-03-02T19:10:45.893Z,10.10
2019-03-02T19:13:12.369Z,10.20
2019-03-02T19:15:38.970Z,10.00
2019-03-02T19:18:05.537Z,10.10
2019-03-02T19:20:32.224Z,10.30
2019-03-02T19:22:58.676Z,10.30
2019-03-02T19:25:25.492Z,10.30
2019-03-02T19:27:52.094Z,10.20
2019-03-02T19:30:19.608Z,10.10
2019-03-02T19:32:46.271Z,10.50
2019-03-02T19:35:12.951Z,10.60
2019-03-02T19:37:40.425Z,10.70
2019-03-02T19:40:22.674Z,10.50
2019-03-02T19:42:49.438Z,10.80
2019-03-02T19:45:16.142Z,10.80
2019-03-02T19:47:42.710Z,10.50
2019-03-02T19:50:17.475Z,11.00
2019-03-02T19:52:44.141Z,11.00
2019-03-02T19:55:12.977Z,11.00
2019-03-02T19:57:39.565Z,11.00
2019-03-02T20:00:12.498Z,10.90
2019-03-02T20:02:39.076Z,11.10
2019-03-02T20:05:06.872Z,10.90
2019-03-02T20:07:33.456Z,11.00
2019-03-02T20:10:00.148Z,11.00
2019-03-02T20:12:26.888Z,11.20
2019-03-02T20:14:53.373Z,10.80
2019-03-02T20:17:19.970Z,11.10
2019-03-02T20:19:46.551Z,11.00
2019-03-02T20:22:13.125Z,11.20
2019-03-02T20:24:39.686Z,10.90
2019-03-02T20:27:06.402Z,11.10
2019-03-02T20:29:32.853Z,11.10
2019-03-02T20:31:59.373Z,10.90
2019-03-02T20:34:25.841Z,11.10
2019-03-02T20:36:52.511Z,10.90
2019-03-02T20:39:19.490Z,11.00
2019-03-02T20:41:46.155Z,11.00
2019-03-02T20:44:12.632Z,11.20
2019-03-02T20:46:39.372Z,11.00
2019-03-02T20:49:06.062Z,10.90
2019-03-02T20:51:32.788Z,10.90
2019-03-02T20:53:59.402Z,11.00
2019-03-02T20:56:25.860Z,11.50
2019-03-02T20:58:52.353Z,11.30
2019-03-02T21:01:19.010Z,11.30
2019-03-02T21:03:46.073Z,11.40
2019-03-02T21:06:12.757Z,11.30
2019-03-02T21:08:39.303Z,11.30
2019-03-02T21:11:06.088Z,11.60
2019-03-02T21:13:32.600Z,11.30
2019-03-02T21:15:59.295Z,11.60
2019-03-02T21:18:25.907Z,11.30
2019-03-02T21:20:52.555Z,11.40
2019-03-02T21:23:19.105Z,11.30
2019-03-02T21:25:45.690Z,11.60
2019-03-02T21:28:12.304Z,11.40
2019-03-02T21:30:38.995Z,11.60
2019-03-02T21:33:05.650Z,11.50
2019-03-02T21:35:32.135Z,11.30
2019-03-02T21:37:58.730Z,11.40
2019-03-02T21:40:26.813Z,11.30
2019-03-02T21:42:53.282Z,11.30
2019-03-02T21:45:21.962Z,11.50
2019-03-02T21:47:49.433Z,11.40
2019-03-02T21:50:27.917Z,11.40
2019-03-02T21:52:54.889Z,11.30
2019-03-02T21:55:21.956Z,11.30
2019-03-02T21:57:48.626Z,11.40
2019-03-02T22:00:17.512Z,11.60
2019-03-02T22:02:44.196Z,11.30
2019-03-02T22:05:10.788Z,11.50
2019-03-02T22:07:37.273Z,11.50
2019-03-02T22:10:10.023Z,11.30
2019-03-02T22:12:36.766Z,11.30
2019-03-02T22:15:08.139Z,11.30
2019-03-02T22:17:34.630Z,11.40
2019-03-02T22:20:01.587Z,10.90
2019-03-02T22:22:29.378Z,11.20
2019-03-02T22:24:56.142Z,10.80
2019-03-02T22:27:22.740Z,11.10
2019-03-02T22:29:49.202Z,11.20
2019-03-02T22:32:15.740Z,11.00
2019-03-02T22:34:42.588Z,10.90
2019-03-02T22:37:08.995Z,11.00
2019-03-02T22:39:35.585Z,11.00
2019-03-02T22:42:03.714Z,10.80
2019-03-02T22:44:30.624Z,11.10
2019-03-02T22:46:57.489Z,11.10
2019-03-02T22:49:24.055Z,10.90
2019-03-02T22:51:50.643Z,10.90
2019-03-02T22:54:17.114Z,10.90
2019-03-02T22:56:44.066Z,10.90
2019-03-02T22:59:10.594Z,10.80
2019-03-02T23:01:41.076Z,10.80
2019-03-02T23:04:07.810Z,10.80
2019-03-02T23:06:34.361Z,10.90
2019-03-02T23:09:00.876Z,10.90
2019-03-02T23:11:27.544Z,10.80
2019-03-02T23:13:54.137Z,10.80
2019-03-02T23:16:20.736Z,10.90
2019-03-02T23:18:47.432Z,11.00
2019-03-02T23:21:14.290Z,11.30
2019-03-02T23:23:40.757Z,11.00
2019-03-02T23:26:07.441Z,11.00
2019-03-02T23:28:33.927Z,11.00
2019-03-02T23:31:00.548Z,10.90
2019-03-02T23:33:27.023Z,10.90
2019-03-02T23:35:53.905Z,10.80
2019-03-02T23:38:20.472Z,10.90
2019-03-02T23:40:47.075Z,10.90
2019-03-02T23:43:13.640Z,10.90
2019-03-02T23:45:40.216Z,10.90
2019-03-02T23:48:06.891Z,10.90
2019-03-02T23:50:33.266Z,11.00
2019-03-02T23:52:59.849Z,11.00
2019-03-02T23:55:26.524Z,10.50
2019-03-02T23:57:53.005Z,10.90
